sensor_id;sensor_type;location;lat;lon;timestamp;P1;durP1;ratioP1;P2;durP2;ratioP2
9771;SDS011;4925;52.588;13.370;2024-02-16T00:00:57;8.03;;;3.80;;
9771;SDS011;4925;52.588;13.370;2024-02-16T00:03:24;4.30;;;4.00;;
9771;SDS011;4925;52.588;13.370;2024-02-16T00:05:51;4.50;;;4.10;;
9771;SDS011;4925;52.588;13.370;2024-02-16T00:08:18;4.73;;;4.13;;
9771;SDS011;4925;52.588;13.370;2024-02-16T00:10:45;6.83;;;4.30;;
9771;SDS011;4925;52.588;13.370;2024-02-16T00:13:11;4.80;;;4.13;;
9771;SDS011;4925;52.588;13.370;2024-02-16T00:15:37;4.60;;;4.17;;
9771;SDS011;4925;52.588;13.370;2024-02-16T00:18:04;5.37;;;4.53;;
9771;SDS011;4925;52.588;13.370;2024-02-16T00:20:30;4.73;;;4.33;;
9771;SDS011;4925;52.588;13.370;2024-02-16T00:22:56;5.20;;;4.30;;
9771;SDS011;4925;52.588;13.370;2024-02-16T00:25:22;4.87;;;4.37;;
9771;SDS011;4925;52.588;13.370;2024-02-16T00:27:48;5.63;;;4.67;;
9771;SDS011;4925;52.588;13.370;2024-02-16T00:30:15;5.10;;;4.60;;
9771;SDS011;4925;52.588;13.370;2024-02-16T00:32:43;5.43;;;4.63;;
9771;SDS011;4925;52.588;13.370;2024-02-16T00:35:11;5.13;;;4.70;;
9771;SDS011;4925;52.588;13.370;2024-02-16T00:37:37;5.40;;;4.90;;
9771;SDS011;4925;52.588;13.370;2024-02-16T00:40:03;7.47;;;5.10;;
9771;SDS011;4925;52.588;13.370;2024-02-16T00:42:31;7.10;;;5.77;;
9771;SDS011;4925;52.588;13.370;2024-02-16T00:44:57;6.80;;;5.57;;
9771;SDS011;4925;52.588;13.370;2024-02-16T00:47:25;6.90;;;5.30;;
9771;SDS011;4925;52.588;13.370;2024-02-16T00:49:52;6.90;;;5.83;;
9771;SDS011;4925;52.588;13.370;2024-02-16T00:52:17;7.70;;;6.30;;
9771;SDS011;4925;52.588;13.370;2024-02-16T00:54:43;8.27;;;6.40;;
9771;SDS011;4925;52.588;13.370;2024-02-16T00:57:09;7.93;;;6.93;;
9771;SDS011;4925;52.588;13.370;2024-02-16T00:59:34;9.87;;;7.13;;
9771;SDS011;4925;52.588;13.370;2024-02-16T01:02:00;9.43;;;7.03;;
9771;SDS011;4925;52.588;13.370;2024-02-16T01:04:26;8.87;;;6.87;;
9771;SDS011;4925;52.588;13.370;2024-02-16T01:06:51;7.57;;;6.77;;
9771;SDS011;4925;52.588;13.370;2024-02-16T01:09:17;9.07;;;6.70;;
9771;SDS011;4925;52.588;13.370;2024-02-16T01:11:43;7.80;;;7.00;;
9771;SDS011;4925;52.588;13.370;2024-02-16T01:14:08;9.03;;;7.03;;
9771;SDS011;4925;52.588;13.370;2024-02-16T01:16:34;8.53;;;7.63;;
9771;SDS011;4925;52.588;13.370;2024-02-16T01:19:00;8.47;;;7.53;;
9771;SDS011;4925;52.588;13.370;2024-02-16T01:21:26;7.93;;;7.13;;
9771;SDS011;4925;52.588;13.370;2024-02-16T01:23:53;9.87;;;7.40;;
9771;SDS011;4925;52.588;13.370;2024-02-16T01:26:19;10.10;;;8.17;;
9771;SDS011;4925;52.588;13.370;2024-02-16T01:28:44;9.07;;;7.40;;
9771;SDS011;4925;52.588;13.370;2024-02-16T01:31:10;9.17;;;8.17;;
9771;SDS011;4925;52.588;13.370;2024-02-16T01:33:38;10.40;;;7.30;;
9771;SDS011;4925;52.588;13.370;2024-02-16T01:36:03;8.73;;;7.70;;
9771;SDS011;4925;52.588;13.370;2024-02-16T01:38:29;9.23;;;7.93;;
9771;SDS011;4925;52.588;13.370;2024-02-16T01:40:55;9.60;;;8.20;;
9771;SDS011;4925;52.588;13.370;2024-02-16T01:43:21;10.10;;;8.03;;
9771;SDS011;4925;52.588;13.370;2024-02-16T01:45:46;9.40;;;8.33;;
9771;SDS011;4925;52.588;13.370;2024-02-16T01:48:13;10.63;;;8.33;;
9771;SDS011;4925;52.588;13.370;2024-02-16T01:50:41;8.60;;;7.80;;
9771;SDS011;4925;52.588;13.370;2024-02-16T01:53:08;13.63;;;8.53;;
9771;SDS011;4925;52.588;13.370;2024-02-16T01:55:36;11.00;;;8.33;;
9771;SDS011;4925;52.588;13.370;2024-02-16T01:58:02;10.10;;;8.00;;
9771;SDS011;4925;52.588;13.370;2024-02-16T02:00:29;11.07;;;8.30;;
9771;SDS011;4925;52.588;13.370;2024-02-16T02:02:54;12.13;;;8.63;;
9771;SDS011;4925;52.588;13.370;2024-02-16T02:05:22;11.80;;;8.93;;
9771;SDS011;4925;52.588;13.370;2024-02-16T02:07:49;10.77;;;8.80;;
9771;SDS011;4925;52.588;13.370;2024-02-16T02:10:16;11.20;;;8.50;;
9771;SDS011;4925;52.588;13.370;2024-02-16T02:12:42;12.20;;;8.80;;
9771;SDS011;4925;52.588;13.370;2024-02-16T02:15:09;11.17;;;8.97;;
9771;SDS011;4925;52.588;13.370;2024-02-16T02:17:35;12.20;;;10.47;;
9771;SDS011;4925;52.588;13.370;2024-02-16T02:20:01;10.17;;;8.10;;
9771;SDS011;4925;52.588;13.370;2024-02-16T02:22:28;12.70;;;8.60;;
9771;SDS011;4925;52.588;13.370;2024-02-16T02:24:54;10.90;;;8.90;;
9771;SDS011;4925;52.588;13.370;2024-02-16T02:27:23;10.33;;;8.70;;
9771;SDS011;4925;52.588;13.370;2024-02-16T02:29:48;12.67;;;9.47;;
9771;SDS011;4925;52.588;13.370;2024-02-16T02:32:15;10.53;;;8.70;;
9771;SDS011;4925;52.588;13.370;2024-02-16T02:34:40;11.40;;;9.03;;
9771;SDS011;4925;52.588;13.370;2024-02-16T02:37:06;11.33;;;10.07;;
9771;SDS011;4925;52.588;13.370;2024-02-16T02:39:32;14.87;;;9.80;;
9771;SDS011;4925;52.588;13.370;2024-02-16T02:41:58;12.13;;;9.50;;
9771;SDS011;4925;52.588;13.370;2024-02-16T02:44:24;13.73;;;10.13;;
9771;SDS011;4925;52.588;13.370;2024-02-16T02:46:50;12.60;;;10.10;;
9771;SDS011;4925;52.588;13.370;2024-02-16T02:49:16;10.90;;;9.33;;
9771;SDS011;4925;52.588;13.370;2024-02-16T02:51:42;12.30;;;10.10;;
9771;SDS011;4925;52.588;13.370;2024-02-16T02:54:08;12.50;;;10.33;;
9771;SDS011;4925;52.588;13.370;2024-02-16T02:56:34;12.87;;;9.70;;
9771;SDS011;4925;52.588;13.370;2024-02-16T02:59:00;13.73;;;9.67;;
9771;SDS011;4925;52.588;13.370;2024-02-16T03:01:26;12.83;;;9.57;;
9771;SDS011;4925;52.588;13.370;2024-02-16T03:03:51;13.03;;;9.77;;
9771;SDS011;4925;52.588;13.370;2024-02-16T03:06:21;11.37;;;9.90;;
9771;SDS011;4925;52.588;13.370;2024-02-16T03:08:46;14.10;;;10.40;;
9771;SDS011;4925;52.588;13.370;2024-02-16T03:11:12;13.83;;;10.03;;
9771;SDS011;4925;52.588;13.370;2024-02-16T03:13:38;11.37;;;10.13;;
9771;SDS011;4925;52.588;13.370;2024-02-16T03:16:03;14.03;;;10.77;;
9771;SDS011;4925;52.588;13.370;2024-02-16T03:18:30;11.33;;;10.13;;
9771;SDS011;4925;52.588;13.370;2024-02-16T03:20:56;15.20;;;9.53;;
9771;SDS011;4925;52.588;13.370;2024-02-16T03:23:22;11.33;;;10.13;;
9771;SDS011;4925;52.588;13.370;2024-02-16T03:25:48;12.07;;;9.47;;
9771;SDS011;4925;52.588;13.370;2024-02-16T03:28:14;13.07;;;10.20;;
9771;SDS011;4925;52.588;13.370;2024-02-16T03:30:40;13.63;;;10.43;;
9771;SDS011;4925;52.588;13.370;2024-02-16T03:33:08;13.30;;;9.77;;
9771;SDS011;4925;52.588;13.370;2024-02-16T03:35:34;12.07;;;10.10;;
9771;SDS011;4925;52.588;13.370;2024-02-16T03:38:00;10.97;;;8.40;;
9771;SDS011;4925;52.588;13.370;2024-02-16T03:40:26;13.53;;;9.10;;
9771;SDS011;4925;52.588;13.370;2024-02-16T03:42:53;10.37;;;9.23;;
9771;SDS011;4925;52.588;13.370;2024-02-16T03:45:18;10.77;;;9.60;;
9771;SDS011;4925;52.588;13.370;2024-02-16T03:47:44;11.90;;;9.47;;
9771;SDS011;4925;52.588;13.370;2024-02-16T03:50:10;16.53;;;10.47;;
9771;SDS011;4925;52.588;13.370;2024-02-16T03:52:36;13.57;;;9.70;;
9771;SDS011;4925;52.588;13.370;2024-02-16T03:55:02;12.40;;;9.93;;
9771;SDS011;4925;52.588;13.370;2024-02-16T03:57:29;11.70;;;9.50;;
9771;SDS011;4925;52.588;13.370;2024-02-16T03:59:55;12.70;;;9.67;;
9771;SDS011;4925;52.588;13.370;2024-02-16T04:02:21;13.50;;;9.50;;
9771;SDS011;4925;52.588;13.370;2024-02-16T04:04:46;11.07;;;9.83;;
9771;SDS011;4925;52.588;13.370;2024-02-16T04:07:12;13.03;;;10.17;;
9771;SDS011;4925;52.588;13.370;2024-02-16T04:09:37;15.07;;;9.30;;
9771;SDS011;4925;52.588;13.370;2024-02-16T04:12:03;12.77;;;10.30;;
9771;SDS011;4925;52.588;13.370;2024-02-16T04:14:30;10.77;;;8.87;;
9771;SDS011;4925;52.588;13.370;2024-02-16T04:16:56;12.97;;;9.30;;
9771;SDS011;4925;52.588;13.370;2024-02-16T04:19:27;11.63;;;9.07;;
9771;SDS011;4925;52.588;13.370;2024-02-16T04:21:54;11.17;;;8.60;;
9771;SDS011;4925;52.588;13.370;2024-02-16T04:24:20;9.60;;;8.70;;
9771;SDS011;4925;52.588;13.370;2024-02-16T04:26:45;14.20;;;8.73;;
9771;SDS011;4925;52.588;13.370;2024-02-16T04:29:11;12.50;;;9.57;;
9771;SDS011;4925;52.588;13.370;2024-02-16T04:31:40;16.70;;;9.70;;
9771;SDS011;4925;52.588;13.370;2024-02-16T04:34:10;12.40;;;9.57;;
9771;SDS011;4925;52.588;13.370;2024-02-16T04:36:36;15.20;;;9.03;;
9771;SDS011;4925;52.588;13.370;2024-02-16T04:39:02;11.57;;;8.80;;
9771;SDS011;4925;52.588;13.370;2024-02-16T04:41:28;11.00;;;9.07;;
9771;SDS011;4925;52.588;13.370;2024-02-16T04:43:54;14.70;;;8.83;;
9771;SDS011;4925;52.588;13.370;2024-02-16T04:46:20;10.00;;;8.90;;
9771;SDS011;4925;52.588;13.370;2024-02-16T04:48:46;12.13;;;9.50;;
9771;SDS011;4925;52.588;13.370;2024-02-16T04:51:12;11.90;;;9.63;;
9771;SDS011;4925;52.588;13.370;2024-02-16T04:53:37;11.03;;;8.80;;
9771;SDS011;4925;52.588;13.370;2024-02-16T04:56:03;12.43;;;9.30;;
9771;SDS011;4925;52.588;13.370;2024-02-16T04:58:30;9.53;;;8.27;;
9771;SDS011;4925;52.588;13.370;2024-02-16T05:00:56;11.33;;;9.03;;
9771;SDS011;4925;52.588;13.370;2024-02-16T05:03:22;9.90;;;8.33;;
9771;SDS011;4925;52.588;13.370;2024-02-16T05:05:47;15.73;;;10.33;;
9771;SDS011;4925;52.588;13.370;2024-02-16T05:08:13;12.17;;;8.97;;
9771;SDS011;4925;52.588;13.370;2024-02-16T05:10:39;10.73;;;8.90;;
9771;SDS011;4925;52.588;13.370;2024-02-16T05:13:05;10.73;;;9.37;;
9771;SDS011;4925;52.588;13.370;2024-02-16T05:15:31;12.00;;;8.67;;
9771;SDS011;4925;52.588;13.370;2024-02-16T05:17:57;11.47;;;8.97;;
9771;SDS011;4925;52.588;13.370;2024-02-16T05:20:23;8.80;;;7.90;;
9771;SDS011;4925;52.588;13.370;2024-02-16T05:22:50;15.03;;;8.63;;
9771;SDS011;4925;52.588;13.370;2024-02-16T05:25:16;12.03;;;8.50;;
9771;SDS011;4925;52.588;13.370;2024-02-16T05:27:45;11.77;;;8.77;;
9771;SDS011;4925;52.588;13.370;2024-02-16T05:30:12;13.03;;;9.70;;
9771;SDS011;4925;52.588;13.370;2024-02-16T05:32:40;10.03;;;7.67;;
9771;SDS011;4925;52.588;13.370;2024-02-16T05:35:07;9.43;;;7.93;;
9771;SDS011;4925;52.588;13.370;2024-02-16T05:37:41;10.33;;;8.37;;
9771;SDS011;4925;52.588;13.370;2024-02-16T05:40:16;11.33;;;7.87;;
9771;SDS011;4925;52.588;13.370;2024-02-16T05:42:53;10.10;;;7.17;;
9771;SDS011;4925;52.588;13.370;2024-02-16T05:45:23;11.57;;;7.70;;
9771;SDS011;4925;52.588;13.370;2024-02-16T05:47:49;9.57;;;7.60;;
9771;SDS011;4925;52.588;13.370;2024-02-16T05:50:16;8.73;;;7.33;;
9771;SDS011;4925;52.588;13.370;2024-02-16T05:52:42;11.43;;;7.70;;
9771;SDS011;4925;52.588;13.370;2024-02-16T05:55:09;12.00;;;7.67;;
9771;SDS011;4925;52.588;13.370;2024-02-16T05:57:37;10.17;;;7.43;;
9771;SDS011;4925;52.588;13.370;2024-02-16T06:00:03;10.07;;;7.60;;
9771;SDS011;4925;52.588;13.370;2024-02-16T06:02:33;11.97;;;8.33;;
9771;SDS011;4925;52.588;13.370;2024-02-16T06:05:00;13.27;;;7.90;;
9771;SDS011;4925;52.588;13.370;2024-02-16T06:07:27;11.57;;;7.40;;
9771;SDS011;4925;52.588;13.370;2024-02-16T06:09:54;10.03;;;7.53;;
9771;SDS011;4925;52.588;13.370;2024-02-16T06:12:20;13.80;;;7.33;;
9771;SDS011;4925;52.588;13.370;2024-02-16T06:14:46;10.10;;;7.43;;
9771;SDS011;4925;52.588;13.370;2024-02-16T06:17:13;11.00;;;7.67;;
9771;SDS011;4925;52.588;13.370;2024-02-16T06:19:40;9.73;;;7.87;;
9771;SDS011;4925;52.588;13.370;2024-02-16T06:22:06;10.63;;;7.57;;
9771;SDS011;4925;52.588;13.370;2024-02-16T06:24:33;8.37;;;7.50;;
9771;SDS011;4925;52.588;13.370;2024-02-16T06:26:59;10.67;;;7.63;;
9771;SDS011;4925;52.588;13.370;2024-02-16T06:29:25;11.13;;;7.67;;
9771;SDS011;4925;52.588;13.370;2024-02-16T06:31:51;8.17;;;7.03;;
9771;SDS011;4925;52.588;13.370;2024-02-16T06:34:17;10.50;;;7.03;;
9771;SDS011;4925;52.588;13.370;2024-02-16T06:36:43;8.70;;;6.83;;
9771;SDS011;4925;52.588;13.370;2024-02-16T06:39:09;9.57;;;7.23;;
9771;SDS011;4925;52.588;13.370;2024-02-16T06:41:36;11.03;;;7.87;;
9771;SDS011;4925;52.588;13.370;2024-02-16T06:44:02;15.70;;;8.43;;
9771;SDS011;4925;52.588;13.370;2024-02-16T06:46:29;11.50;;;7.33;;
9771;SDS011;4925;52.588;13.370;2024-02-16T06:48:55;8.10;;;7.17;;
9771;SDS011;4925;52.588;13.370;2024-02-16T06:51:23;13.70;;;7.40;;
9771;SDS011;4925;52.588;13.370;2024-02-16T06:53:49;7.37;;;6.53;;
9771;SDS011;4925;52.588;13.370;2024-02-16T06:56:16;8.47;;;6.97;;
9771;SDS011;4925;52.588;13.370;2024-02-16T06:58:43;9.13;;;6.57;;
9771;SDS011;4925;52.588;13.370;2024-02-16T07:01:09;9.43;;;7.57;;
9771;SDS011;4925;52.588;13.370;2024-02-16T07:03:35;9.83;;;7.63;;
9771;SDS011;4925;52.588;13.370;2024-02-16T07:06:02;10.40;;;6.83;;
9771;SDS011;4925;52.588;13.370;2024-02-16T07:08:28;9.07;;;7.13;;
9771;SDS011;4925;52.588;13.370;2024-02-16T07:10:54;10.53;;;7.37;;
9771;SDS011;4925;52.588;13.370;2024-02-16T07:13:22;11.07;;;7.47;;
9771;SDS011;4925;52.588;13.370;2024-02-16T07:15:47;9.73;;;8.03;;
9771;SDS011;4925;52.588;13.370;2024-02-16T07:18:13;11.00;;;7.03;;
9771;SDS011;4925;52.588;13.370;2024-02-16T07:20:40;11.57;;;7.77;;
9771;SDS011;4925;52.588;13.370;2024-02-16T07:23:06;12.40;;;8.73;;
9771;SDS011;4925;52.588;13.370;2024-02-16T07:25:34;11.33;;;7.53;;
9771;SDS011;4925;52.588;13.370;2024-02-16T07:28:00;9.27;;;7.47;;
9771;SDS011;4925;52.588;13.370;2024-02-16T07:30:27;9.23;;;7.80;;
9771;SDS011;4925;52.588;13.370;2024-02-16T07:32:53;9.13;;;7.57;;
9771;SDS011;4925;52.588;13.370;2024-02-16T07:35:18;9.13;;;6.90;;
9771;SDS011;4925;52.588;13.370;2024-02-16T07:37:49;12.63;;;8.23;;
9771;SDS011;4925;52.588;13.370;2024-02-16T07:40:19;9.83;;;7.53;;
9771;SDS011;4925;52.588;13.370;2024-02-16T07:42:47;12.53;;;8.20;;
9771;SDS011;4925;52.588;13.370;2024-02-16T07:45:13;12.80;;;8.10;;
9771;SDS011;4925;52.588;13.370;2024-02-16T07:47:43;8.57;;;7.33;;
9771;SDS011;4925;52.588;13.370;2024-02-16T07:50:09;11.20;;;8.40;;
9771;SDS011;4925;52.588;13.370;2024-02-16T07:52:35;12.50;;;8.40;;
9771;SDS011;4925;52.588;13.370;2024-02-16T07:55:02;12.83;;;8.17;;
9771;SDS011;4925;52.588;13.370;2024-02-16T07:57:28;11.63;;;8.20;;
9771;SDS011;4925;52.588;13.370;2024-02-16T07:59:55;10.30;;;7.03;;
9771;SDS011;4925;52.588;13.370;2024-02-16T08:02:21;9.20;;;7.07;;
9771;SDS011;4925;52.588;13.370;2024-02-16T08:04:47;11.30;;;8.47;;
9771;SDS011;4925;52.588;13.370;2024-02-16T08:07:13;12.53;;;8.30;;
9771;SDS011;4925;52.588;13.370;2024-02-16T08:09:39;10.87;;;7.83;;
9771;SDS011;4925;52.588;13.370;2024-02-16T08:12:05;10.33;;;8.67;;
9771;SDS011;4925;52.588;13.370;2024-02-16T08:14:35;12.33;;;7.77;;
9771;SDS011;4925;52.588;13.370;2024-02-16T08:17:00;9.47;;;7.07;;
9771;SDS011;4925;52.588;13.370;2024-02-16T08:19:33;10.70;;;7.50;;
9771;SDS011;4925;52.588;13.370;2024-02-16T08:22:00;12.10;;;7.50;;
9771;SDS011;4925;52.588;13.370;2024-02-16T08:24:26;8.70;;;7.57;;
9771;SDS011;4925;52.588;13.370;2024-02-16T08:26:52;13.97;;;7.77;;
9771;SDS011;4925;52.588;13.370;2024-02-16T08:29:18;12.33;;;8.00;;
9771;SDS011;4925;52.588;13.370;2024-02-16T08:31:45;9.33;;;7.33;;
9771;SDS011;4925;52.588;13.370;2024-02-16T08:34:13;8.70;;;7.53;;
9771;SDS011;4925;52.588;13.370;2024-02-16T08:36:43;12.57;;;7.30;;
9771;SDS011;4925;52.588;13.370;2024-02-16T08:39:12;14.70;;;7.90;;
9771;SDS011;4925;52.588;13.370;2024-02-16T08:41:38;10.73;;;7.30;;
9771;SDS011;4925;52.588;13.370;2024-02-16T08:44:05;11.27;;;7.03;;
9771;SDS011;4925;52.588;13.370;2024-02-16T08:46:34;9.67;;;6.37;;
9771;SDS011;4925;52.588;13.370;2024-02-16T08:49:02;9.40;;;6.83;;
9771;SDS011;4925;52.588;13.370;2024-02-16T08:51:28;7.57;;;6.63;;
9771;SDS011;4925;52.588;13.370;2024-02-16T08:53:53;10.83;;;7.13;;
9771;SDS011;4925;52.588;13.370;2024-02-16T08:56:19;9.10;;;6.70;;
9771;SDS011;4925;52.588;13.370;2024-02-16T08:58:45;14.10;;;7.03;;
9771;SDS011;4925;52.588;13.370;2024-02-16T09:01:11;14.97;;;7.83;;
9771;SDS011;4925;52.588;13.370;2024-02-16T09:03:37;8.00;;;6.20;;
9771;SDS011;4925;52.588;13.370;2024-02-16T09:06:05;6.67;;;5.93;;
9771;SDS011;4925;52.588;13.370;2024-02-16T09:08:31;10.57;;;6.70;;
9771;SDS011;4925;52.588;13.370;2024-02-16T09:11:00;9.47;;;6.40;;
9771;SDS011;4925;52.588;13.370;2024-02-16T09:13:32;8.50;;;6.53;;
9771;SDS011;4925;52.588;13.370;2024-02-16T09:15:59;14.40;;;8.20;;
9771;SDS011;4925;52.588;13.370;2024-02-16T09:18:25;11.03;;;8.27;;
9771;SDS011;4925;52.588;13.370;2024-02-16T09:20:50;10.43;;;6.17;;
9771;SDS011;4925;52.588;13.370;2024-02-16T09:23:16;7.40;;;5.80;;
9771;SDS011;4925;52.588;13.370;2024-02-16T09:25:42;13.70;;;6.37;;
9771;SDS011;4925;52.588;13.370;2024-02-16T09:28:09;10.73;;;6.17;;
9771;SDS011;4925;52.588;13.370;2024-02-16T09:30:36;7.97;;;5.40;;
9771;SDS011;4925;52.588;13.370;2024-02-16T09:33:03;7.27;;;5.80;;
9771;SDS011;4925;52.588;13.370;2024-02-16T09:35:29;9.60;;;5.30;;
9771;SDS011;4925;52.588;13.370;2024-02-16T09:37:56;10.13;;;5.40;;
9771;SDS011;4925;52.588;13.370;2024-02-16T09:40:22;6.00;;;4.90;;
9771;SDS011;4925;52.588;13.370;2024-02-16T09:42:48;11.47;;;6.07;;
9771;SDS011;4925;52.588;13.370;2024-02-16T09:45:14;10.27;;;4.70;;
9771;SDS011;4925;52.588;13.370;2024-02-16T09:47:45;11.37;;;4.73;;
9771;SDS011;4925;52.588;13.370;2024-02-16T09:50:14;6.30;;;4.27;;
9771;SDS011;4925;52.588;13.370;2024-02-16T09:52:40;8.43;;;5.17;;
9771;SDS011;4925;52.588;13.370;2024-02-16T09:55:12;8.77;;;5.43;;
9771;SDS011;4925;52.588;13.370;2024-02-16T09:57:38;6.47;;;4.40;;
9771;SDS011;4925;52.588;13.370;2024-02-16T10:00:05;9.80;;;5.00;;
9771;SDS011;4925;52.588;13.370;2024-02-16T10:02:41;5.97;;;4.43;;
9771;SDS011;4925;52.588;13.370;2024-02-16T10:07:37;6.13;;;4.40;;
9771;SDS011;4925;52.588;13.370;2024-02-16T10:10:02;7.73;;;4.13;;
9771;SDS011;4925;52.588;13.370;2024-02-16T10:12:29;7.20;;;4.33;;
9771;SDS011;4925;52.588;13.370;2024-02-16T10:14:55;6.27;;;5.07;;
9771;SDS011;4925;52.588;13.370;2024-02-16T10:17:24;9.67;;;3.93;;
9771;SDS011;4925;52.588;13.370;2024-02-16T10:19:56;5.47;;;4.17;;
9771;SDS011;4925;52.588;13.370;2024-02-16T10:22:22;5.50;;;4.37;;
9771;SDS011;4925;52.588;13.370;2024-02-16T10:24:48;4.90;;;3.50;;
9771;SDS011;4925;52.588;13.370;2024-02-16T10:27:18;6.63;;;4.60;;
9771;SDS011;4925;52.588;13.370;2024-02-16T10:29:44;6.53;;;4.17;;
9771;SDS011;4925;52.588;13.370;2024-02-16T10:32:14;6.40;;;3.67;;
9771;SDS011;4925;52.588;13.370;2024-02-16T10:34:40;5.03;;;3.10;;
9771;SDS011;4925;52.588;13.370;2024-02-16T10:37:06;7.07;;;3.97;;
9771;SDS011;4925;52.588;13.370;2024-02-16T10:39:32;5.93;;;3.83;;
9771;SDS011;4925;52.588;13.370;2024-02-16T10:41:59;6.30;;;4.43;;
9771;SDS011;4925;52.588;13.370;2024-02-16T10:44:27;25.87;;;17.93;;
9771;SDS011;4925;52.588;13.370;2024-02-16T10:46:53;7.40;;;5.03;;
9771;SDS011;4925;52.588;13.370;2024-02-16T10:49:21;8.03;;;3.77;;
9771;SDS011;4925;52.588;13.370;2024-02-16T10:51:49;4.20;;;3.77;;
9771;SDS011;4925;52.588;13.370;2024-02-16T10:54:21;5.37;;;3.73;;
9771;SDS011;4925;52.588;13.370;2024-02-16T10:56:48;5.10;;;3.60;;
9771;SDS011;4925;52.588;13.370;2024-02-16T10:59:15;6.13;;;3.77;;
9771;SDS011;4925;52.588;13.370;2024-02-16T11:01:42;5.00;;;3.37;;
9771;SDS011;4925;52.588;13.370;2024-02-16T11:04:19;5.33;;;3.63;;
9771;SDS011;4925;52.588;13.370;2024-02-16T11:06:55;7.67;;;3.40;;
9771;SDS011;4925;52.588;13.370;2024-02-16T11:09:27;6.30;;;4.30;;
9771;SDS011;4925;52.588;13.370;2024-02-16T11:12:03;4.27;;;3.70;;
9771;SDS011;4925;52.588;13.370;2024-02-16T11:14:36;4.07;;;3.03;;
9771;SDS011;4925;52.588;13.370;2024-02-16T11:17:12;7.37;;;3.70;;
9771;SDS011;4925;52.588;13.370;2024-02-16T11:19:41;5.67;;;3.60;;
9771;SDS011;4925;52.588;13.370;2024-02-16T11:22:09;3.90;;;3.50;;
9771;SDS011;4925;52.588;13.370;2024-02-16T11:24:36;4.20;;;3.67;;
9771;SDS011;4925;52.588;13.370;2024-02-16T11:27:09;4.57;;;3.47;;
9771;SDS011;4925;52.588;13.370;2024-02-16T11:29:35;5.43;;;3.80;;
9771;SDS011;4925;52.588;13.370;2024-02-16T11:32:03;5.73;;;3.60;;
9771;SDS011;4925;52.588;13.370;2024-02-16T11:34:32;5.00;;;4.23;;
9771;SDS011;4925;52.588;13.370;2024-02-16T11:36:59;6.10;;;3.60;;
9771;SDS011;4925;52.588;13.370;2024-02-16T11:39:30;5.63;;;3.53;;
9771;SDS011;4925;52.588;13.370;2024-02-16T11:42:09;4.40;;;3.60;;
9771;SDS011;4925;52.588;13.370;2024-02-16T11:44:37;5.57;;;4.20;;
9771;SDS011;4925;52.588;13.370;2024-02-16T11:47:05;6.13;;;4.33;;
9771;SDS011;4925;52.588;13.370;2024-02-16T11:49:37;7.27;;;3.70;;
9771;SDS011;4925;52.588;13.370;2024-02-16T11:52:05;5.07;;;3.87;;
9771;SDS011;4925;52.588;13.370;2024-02-16T11:54:32;4.33;;;3.90;;
9771;SDS011;4925;52.588;13.370;2024-02-16T11:57:00;4.30;;;3.80;;
9771;SDS011;4925;52.588;13.370;2024-02-16T11:59:26;4.77;;;3.83;;
9771;SDS011;4925;52.588;13.370;2024-02-16T12:01:53;3.87;;;3.47;;
9771;SDS011;4925;52.588;13.370;2024-02-16T12:04:22;4.20;;;3.50;;
9771;SDS011;4925;52.588;13.370;2024-02-16T12:06:56;6.57;;;3.50;;
9771;SDS011;4925;52.588;13.370;2024-02-16T12:09:25;4.37;;;3.70;;
9771;SDS011;4925;52.588;13.370;2024-02-16T12:11:52;8.53;;;4.00;;
9771;SDS011;4925;52.588;13.370;2024-02-16T12:14:19;4.77;;;3.30;;
9771;SDS011;4925;52.588;13.370;2024-02-16T12:16:51;4.73;;;3.40;;
9771;SDS011;4925;52.588;13.370;2024-02-16T12:19:22;6.70;;;3.20;;
9771;SDS011;4925;52.588;13.370;2024-02-16T12:21:51;4.67;;;3.87;;
9771;SDS011;4925;52.588;13.370;2024-02-16T12:24:18;3.30;;;3.00;;
9771;SDS011;4925;52.588;13.370;2024-02-16T12:26:45;3.23;;;2.90;;
9771;SDS011;4925;52.588;13.370;2024-02-16T12:29:20;4.05;;;3.10;;
9771;SDS011;4925;52.588;13.370;2024-02-16T12:32:00;5.50;;;3.27;;
9771;SDS011;4925;52.588;13.370;2024-02-16T12:34:26;5.55;;;3.33;;
9771;SDS011;4925;52.588;13.370;2024-02-16T12:36:53;6.50;;;3.00;;
9771;SDS011;4925;52.588;13.370;2024-02-16T12:39:20;3.05;;;2.58;;
9771;SDS011;4925;52.588;13.370;2024-02-16T12:41:58;3.80;;;2.50;;
9771;SDS011;4925;52.588;13.370;2024-02-16T12:44:49;2.90;;;2.70;;
9771;SDS011;4925;52.588;13.370;2024-02-16T12:47:15;6.35;;;3.15;;
9771;SDS011;4925;52.588;13.370;2024-02-16T12:49:41;3.53;;;2.73;;
9771;SDS011;4925;52.588;13.370;2024-02-16T12:52:06;3.33;;;2.47;;
9771;SDS011;4925;52.588;13.370;2024-02-16T12:54:32;4.20;;;2.63;;
9771;SDS011;4925;52.588;13.370;2024-02-16T12:57:00;2.47;;;2.23;;
9771;SDS011;4925;52.588;13.370;2024-02-16T12:59:25;5.27;;;2.60;;
9771;SDS011;4925;52.588;13.370;2024-02-16T13:01:51;3.60;;;2.57;;
9771;SDS011;4925;52.588;13.370;2024-02-16T13:04:17;3.60;;;2.33;;
9771;SDS011;4925;52.588;13.370;2024-02-16T13:06:46;6.07;;;3.15;;
9771;SDS011;4925;52.588;13.370;2024-02-16T13:09:12;4.17;;;2.07;;
9771;SDS011;4925;52.588;13.370;2024-02-16T13:11:38;2.53;;;2.33;;
9771;SDS011;4925;52.588;13.370;2024-02-16T13:14:05;2.90;;;2.20;;
9771;SDS011;4925;52.588;13.370;2024-02-16T13:16:31;4.47;;;2.50;;
9771;SDS011;4925;52.588;13.370;2024-02-16T13:18:58;5.50;;;2.47;;
9771;SDS011;4925;52.588;13.370;2024-02-16T13:21:25;3.77;;;2.30;;
9771;SDS011;4925;52.588;13.370;2024-02-16T13:23:52;2.67;;;1.80;;
9771;SDS011;4925;52.588;13.370;2024-02-16T13:26:18;4.77;;;2.17;;
9771;SDS011;4925;52.588;13.370;2024-02-16T13:28:44;2.35;;;1.80;;
9771;SDS011;4925;52.588;13.370;2024-02-16T13:31:09;2.07;;;1.87;;
9771;SDS011;4925;52.588;13.370;2024-02-16T13:33:36;3.37;;;1.73;;
9771;SDS011;4925;52.588;13.370;2024-02-16T13:36:02;2.60;;;1.80;;
9771;SDS011;4925;52.588;13.370;2024-02-16T13:38:29;3.70;;;1.63;;
9771;SDS011;4925;52.588;13.370;2024-02-16T13:40:55;4.43;;;1.70;;
9771;SDS011;4925;52.588;13.370;2024-02-16T13:43:23;4.17;;;2.03;;
9771;SDS011;4925;52.588;13.370;2024-02-16T13:45:49;4.20;;;2.57;;
9771;SDS011;4925;52.588;13.370;2024-02-16T13:48:16;4.05;;;2.30;;
9771;SDS011;4925;52.588;13.370;2024-02-16T13:50:48;2.10;;;1.80;;
9771;SDS011;4925;52.588;13.370;2024-02-16T13:53:15;2.40;;;1.83;;
9771;SDS011;4925;52.588;13.370;2024-02-16T13:55:41;2.67;;;2.05;;
9771;SDS011;4925;52.588;13.370;2024-02-16T13:58:09;5.47;;;2.70;;
9771;SDS011;4925;52.588;13.370;2024-02-16T14:00:38;3.58;;;2.92;;
9771;SDS011;4925;52.588;13.370;2024-02-16T14:03:06;2.10;;;1.60;;
9771;SDS011;4925;52.588;13.370;2024-02-16T14:05:38;2.57;;;1.87;;
9771;SDS011;4925;52.588;13.370;2024-02-16T14:08:05;2.80;;;1.70;;
9771;SDS011;4925;52.588;13.370;2024-02-16T14:10:32;3.20;;;1.63;;
9771;SDS011;4925;52.588;13.370;2024-02-16T14:13:00;4.60;;;1.90;;
9771;SDS011;4925;52.588;13.370;2024-02-16T14:15:26;1.87;;;1.70;;
9771;SDS011;4925;52.588;13.370;2024-02-16T14:17:52;3.30;;;1.80;;
9771;SDS011;4925;52.588;13.370;2024-02-16T14:20:17;1.83;;;1.67;;
9771;SDS011;4925;52.588;13.370;2024-02-16T14:22:43;2.73;;;1.90;;
9771;SDS011;4925;52.588;13.370;2024-02-16T14:25:10;2.33;;;1.85;;
9771;SDS011;4925;52.588;13.370;2024-02-16T14:27:36;4.57;;;1.87;;
9771;SDS011;4925;52.588;13.370;2024-02-16T14:30:04;4.73;;;1.80;;
9771;SDS011;4925;52.588;13.370;2024-02-16T14:32:30;3.50;;;2.10;;
9771;SDS011;4925;52.588;13.370;2024-02-16T14:34:56;4.17;;;1.73;;
9771;SDS011;4925;52.588;13.370;2024-02-16T14:37:22;5.10;;;2.00;;
9771;SDS011;4925;52.588;13.370;2024-02-16T14:39:47;1.90;;;1.50;;
9771;SDS011;4925;52.588;13.370;2024-02-16T14:42:13;3.00;;;1.67;;
9771;SDS011;4925;52.588;13.370;2024-02-16T14:44:39;16.13;;;10.93;;
9771;SDS011;4925;52.588;13.370;2024-02-16T14:47:05;3.27;;;2.70;;
9771;SDS011;4925;52.588;13.370;2024-02-16T14:49:30;1.80;;;1.70;;
9771;SDS011;4925;52.588;13.370;2024-02-16T14:51:56;3.10;;;1.87;;
9771;SDS011;4925;52.588;13.370;2024-02-16T14:54:23;3.20;;;1.80;;
9771;SDS011;4925;52.588;13.370;2024-02-16T14:56:52;2.10;;;1.90;;